createdAt,value
2018-12-04T00:01:11.447Z,8.40
2018-12-04T00:03:39.231Z,8.34
2018-12-04T00:06:07.068Z,8.21
2018-12-04T00:08:34.820Z,8.23
2018-12-04T00:11:02.595Z,8.15
2018-12-04T00:13:30.466Z,8.16
2018-12-04T00:15:58.281Z,8.13
2018-12-04T00:18:26.131Z,8.20
2018-12-04T00:20:53.896Z,8.26
2018-12-04T00:23:21.689Z,8.26
2018-12-04T00:25:49.465Z,8.25
2018-12-04T00:28:17.236Z,8.19
2018-12-04T00:30:45.072Z,8.15
2018-12-04T00:33:12.872Z,8.16
2018-12-04T00:35:40.702Z,8.11
2018-12-04T00:38:08.502Z,8.24
2018-12-04T00:40:36.291Z,8.11
2018-12-04T00:43:04.117Z,8.14
2018-12-04T00:45:32.007Z,8.10
2018-12-04T00:47:59.793Z,8.02
2018-12-04T00:50:27.617Z,7.95
2018-12-04T00:52:55.437Z,7.99
2018-12-04T00:55:23.325Z,7.92
2018-12-04T00:57:51.122Z,7.97
2018-12-04T01:00:18.945Z,7.90
2018-12-04T01:02:46.798Z,7.90
2018-12-04T01:05:15.292Z,7.84
2018-12-04T01:07:43.067Z,7.77
2018-12-04T01:10:10.861Z,7.86
2018-12-04T01:12:38.751Z,7.74
2018-12-04T01:15:07.156Z,7.73
2018-12-04T01:17:34.938Z,7.84
2018-12-04T01:20:02.877Z,7.74
2018-12-04T01:22:31.178Z,7.71
2018-12-04T01:24:59.017Z,7.71
2018-12-04T01:27:26.838Z,7.67
2018-12-04T01:29:54.648Z,7.64
2018-12-04T01:32:22.455Z,7.67
2018-12-04T01:34:50.289Z,7.70
2018-12-04T01:37:18.242Z,7.70
2018-12-04T01:39:46.150Z,7.71
2018-12-04T01:42:14.032Z,7.68
2018-12-04T01:44:41.863Z,7.59
2018-12-04T01:47:09.680Z,7.64
2018-12-04T01:49:37.628Z,7.66
2018-12-04T01:52:05.467Z,7.66
2018-12-04T01:54:33.314Z,7.62
2018-12-04T01:57:01.161Z,7.67
2018-12-04T01:59:28.972Z,7.66
2018-12-04T02:01:56.853Z,7.63
2018-12-04T02:04:24.689Z,7.60
2018-12-04T02:06:52.505Z,7.69
2018-12-04T02:09:20.304Z,7.68
2018-12-04T02:11:48.126Z,7.71
2018-12-04T02:14:15.893Z,7.62
2018-12-04T02:16:43.985Z,7.62
2018-12-04T02:19:11.785Z,7.62
2018-12-04T02:21:39.523Z,7.60
2018-12-04T02:24:07.313Z,7.57
2018-12-04T02:26:35.169Z,7.51
2018-12-04T02:29:02.971Z,7.56
2018-12-04T02:31:30.747Z,7.53
2018-12-04T02:33:58.535Z,7.53
2018-12-04T02:36:26.293Z,7.58
2018-12-04T02:38:54.036Z,7.58
2018-12-04T02:41:21.823Z,7.62
2018-12-04T02:43:49.625Z,7.58
2018-12-04T02:46:17.427Z,7.51
2018-12-04T02:48:45.161Z,7.48
2018-12-04T02:51:12.937Z,7.45
2018-12-04T02:53:40.735Z,7.53
2018-12-04T02:56:08.507Z,7.59
2018-12-04T02:58:36.255Z,7.49
2018-12-04T03:01:04.044Z,7.39
2018-12-04T03:03:31.814Z,7.32
2018-12-04T03:05:59.669Z,7.23
2018-12-04T03:08:27.437Z,7.25
2018-12-04T03:10:55.252Z,7.21
2018-12-04T03:13:23.025Z,7.25
2018-12-04T03:15:50.845Z,7.27
2018-12-04T03:18:18.628Z,7.16
2018-12-04T03:20:46.401Z,7.17
2018-12-04T03:23:14.204Z,7.19
2018-12-04T03:25:41.959Z,7.21
2018-12-04T03:28:09.746Z,7.21
2018-12-04T03:30:37.648Z,7.23
2018-12-04T03:33:05.514Z,7.28
2018-12-04T03:35:33.334Z,7.28
2018-12-04T03:46:39.299Z,7.14
2018-12-04T03:49:37.073Z,7.29
2018-12-04T03:52:04.820Z,7.27
2018-12-04T03:54:32.593Z,7.20
2018-12-04T03:57:00.323Z,7.21
2018-12-04T03:59:28.106Z,7.17
2018-12-04T04:01:55.893Z,7.18
2018-12-04T04:04:23.749Z,7.20
2018-12-04T04:06:51.521Z,7.12
2018-12-04T04:09:19.256Z,7.23
2018-12-04T04:11:47.152Z,7.16
2018-12-04T04:14:14.984Z,7.15
2018-12-04T04:16:42.810Z,7.14
2018-12-04T04:19:10.661Z,7.13
2018-12-04T04:21:38.470Z,7.17
2018-12-04T04:24:06.286Z,7.17
2018-12-04T04:26:34.067Z,7.19
2018-12-04T04:29:01.825Z,7.18
2018-12-04T04:31:29.596Z,7.29
2018-12-04T04:33:57.329Z,7.22
2018-12-04T04:36:25.167Z,7.31
2018-12-04T04:38:52.920Z,7.29
2018-12-04T04:41:20.733Z,7.26
2018-12-04T04:43:48.556Z,7.29
2018-12-04T04:46:16.370Z,7.31
2018-12-04T04:48:44.094Z,7.30
2018-12-04T04:51:11.880Z,7.17
2018-12-04T04:53:39.708Z,7.18
2018-12-04T04:56:07.453Z,7.13
2018-12-04T04:58:35.298Z,7.07
2018-12-04T05:01:03.094Z,7.16
2018-12-04T05:03:30.924Z,7.26
2018-12-04T05:05:58.688Z,7.31
2018-12-04T05:08:26.427Z,7.24
2018-12-04T05:10:54.168Z,7.25
2018-12-04T05:13:21.970Z,7.33
2018-12-04T05:15:49.749Z,7.33
2018-12-04T05:18:17.486Z,7.41
2018-12-04T05:20:45.274Z,7.36
2018-12-04T05:23:13.017Z,7.40
2018-12-04T05:25:40.796Z,7.30
2018-12-04T05:28:08.545Z,7.28
2018-12-04T05:30:36.272Z,7.33
2018-12-04T05:33:04.009Z,7.32
2018-12-04T05:35:31.759Z,7.27
2018-12-04T05:37:59.455Z,7.38
2018-12-04T05:40:27.193Z,7.28
2018-12-04T05:42:54.978Z,7.31
2018-12-04T05:45:22.731Z,7.09
2018-12-04T05:47:50.514Z,7.12
2018-12-04T05:50:18.277Z,7.15
2018-12-04T05:52:56.078Z,7.17
2018-12-04T05:55:23.780Z,7.10
2018-12-04T05:57:51.553Z,7.12
2018-12-04T06:00:19.357Z,7.20
2018-12-04T06:02:47.065Z,7.13
2018-12-04T06:05:14.859Z,7.13
2018-12-04T06:07:42.568Z,7.14
2018-12-04T06:10:10.373Z,7.14
2018-12-04T06:12:38.760Z,7.14
2018-12-04T06:15:06.613Z,7.06
2018-12-04T06:17:34.372Z,7.00
2018-12-04T06:20:02.153Z,7.03
2018-12-04T06:22:29.878Z,6.89
2018-12-04T06:24:57.676Z,6.82
2018-12-04T06:27:25.401Z,6.83
2018-12-04T06:29:53.228Z,6.90
2018-12-04T06:32:21.010Z,6.89
2018-12-04T06:34:48.788Z,6.85
2018-12-04T06:37:16.560Z,6.81
2018-12-04T06:39:44.301Z,6.83
2018-12-04T06:42:12.034Z,6.83
2018-12-04T06:44:39.838Z,6.97
2018-12-04T06:47:07.570Z,6.98
2018-12-04T06:49:35.331Z,7.01
2018-12-04T06:52:03.128Z,7.02
2018-12-04T06:54:30.905Z,7.03
2018-12-04T06:56:58.655Z,6.98
2018-12-04T06:59:26.618Z,7.01
2018-12-04T07:01:54.401Z,6.89
2018-12-04T07:04:22.961Z,6.90
2018-12-04T07:06:50.720Z,6.98
2018-12-04T07:09:18.456Z,7.11
2018-12-04T07:11:46.255Z,7.05
2018-12-04T07:14:14.007Z,7.13
2018-12-04T07:16:41.786Z,7.18
2018-12-04T07:19:09.517Z,7.10
2018-12-04T07:21:37.432Z,7.22
2018-12-04T07:24:05.197Z,7.14
2018-12-04T07:26:32.949Z,7.20
2018-12-04T07:29:00.744Z,7.22
2018-12-04T07:31:28.555Z,7.23
2018-12-04T07:33:56.341Z,7.24
2018-12-04T07:36:24.129Z,7.16
2018-12-04T07:38:51.873Z,7.11
2018-12-04T07:41:19.773Z,7.02
2018-12-04T07:43:47.515Z,6.90
2018-12-04T07:46:15.330Z,6.75
2018-12-04T07:48:43.125Z,6.62
2018-12-04T07:51:11.069Z,6.67
2018-12-04T07:53:38.962Z,6.60
2018-12-04T07:56:06.801Z,6.65
2018-12-04T07:58:34.559Z,6.72
2018-12-04T08:01:02.333Z,6.66
2018-12-04T08:03:30.194Z,6.70
2018-12-04T08:06:00.039Z,6.89
2018-12-04T08:08:27.797Z,6.94
2018-12-04T08:10:55.572Z,6.97
2018-12-04T08:13:23.297Z,7.11
2018-12-04T08:15:51.024Z,7.09
2018-12-04T08:18:18.777Z,7.24
2018-12-04T08:20:46.533Z,7.23
2018-12-04T08:23:14.281Z,7.26
2018-12-04T08:25:42.000Z,7.35
2018-12-04T08:28:09.720Z,7.40
2018-12-04T08:30:37.472Z,7.34
2018-12-04T08:33:05.283Z,7.29
2018-12-04T08:35:33.063Z,7.24
2018-12-04T08:38:00.925Z,7.22
2018-12-04T08:40:28.731Z,7.23
2018-12-04T08:42:56.477Z,7.33
2018-12-04T08:45:24.224Z,7.39
2018-12-04T08:47:51.952Z,7.32
2018-12-04T08:50:19.827Z,7.30
2018-12-04T08:52:47.575Z,7.45
2018-12-04T08:55:15.341Z,7.42
2018-12-04T08:57:43.137Z,7.39
2018-12-04T09:00:10.951Z,7.48
2018-12-04T09:02:38.789Z,7.49
2018-12-04T09:05:07.569Z,7.44
2018-12-04T09:07:35.309Z,7.42
2018-12-04T09:10:03.566Z,7.48
2018-12-04T09:12:31.297Z,7.66
2018-12-04T09:14:59.048Z,7.50
2018-12-04T09:17:26.784Z,7.64
2018-12-04T09:19:54.537Z,7.50
2018-12-04T09:22:22.421Z,7.60
2018-12-04T09:24:50.265Z,7.70
2018-12-04T09:27:18.125Z,7.72
2018-12-04T09:29:45.972Z,7.74
2018-12-04T09:32:13.857Z,7.86
2018-12-04T09:34:41.663Z,7.97
2018-12-04T09:37:09.422Z,8.03
2018-12-04T09:39:37.229Z,8.00
2018-12-04T09:42:05.245Z,7.92
2018-12-04T09:44:33.016Z,7.95
2018-12-04T09:47:00.934Z,7.94
2018-12-04T09:49:28.695Z,7.94
2018-12-04T09:51:56.501Z,8.01
2018-12-04T09:54:24.327Z,8.02
2018-12-04T09:56:52.569Z,8.00
2018-12-04T09:59:20.340Z,7.88
2018-12-04T10:01:48.242Z,8.01
2018-12-04T10:04:16.049Z,8.08
2018-12-04T10:06:43.806Z,8.03
2018-12-04T10:09:11.634Z,8.05
2018-12-04T10:11:39.439Z,8.12
2018-12-04T10:14:07.378Z,8.10
2018-12-04T10:16:35.129Z,8.17
2018-12-04T10:19:02.934Z,8.14
2018-12-04T10:21:30.684Z,8.19
2018-12-04T10:23:58.459Z,8.16
2018-12-04T10:26:26.280Z,8.23
2018-12-04T10:28:54.037Z,8.15
2018-12-04T10:31:21.833Z,8.31
2018-12-04T10:33:49.567Z,8.27
2018-12-04T10:36:17.352Z,8.47
2018-12-04T10:38:45.208Z,8.53
2018-12-04T10:41:13.906Z,8.43
2018-12-04T10:43:41.695Z,8.40
2018-12-04T10:46:09.474Z,8.50
2018-12-04T10:48:37.265Z,8.57
2018-12-04T10:51:05.036Z,8.58
2018-12-04T10:53:32.830Z,8.61
2018-12-04T10:56:00.604Z,8.70
2018-12-04T10:58:28.470Z,8.78
2018-12-04T11:00:58.221Z,8.85
2018-12-04T11:03:31.750Z,8.86
2018-12-04T11:05:59.537Z,8.94
2018-12-04T11:08:27.258Z,8.96
2018-12-04T11:10:55.068Z,8.97
2018-12-04T11:13:22.852Z,9.13
2018-12-04T11:15:50.696Z,9.17
2018-12-04T11:18:18.529Z,9.10
2018-12-04T11:20:46.259Z,9.14
2018-12-04T11:23:14.022Z,9.34
2018-12-04T11:25:41.799Z,9.13
2018-12-04T11:28:09.548Z,9.11
2018-12-04T11:30:37.374Z,9.15
2018-12-04T11:33:05.313Z,9.32
2018-12-04T11:35:33.126Z,9.39
2018-12-04T11:38:01.102Z,9.34
2018-12-04T11:40:29.004Z,9.30
2018-12-04T11:42:56.781Z,9.40
2018-12-04T11:45:24.520Z,9.41
2018-12-04T11:47:52.327Z,9.37
2018-12-04T11:50:20.144Z,9.39
2018-12-04T11:52:48.142Z,9.39
2018-12-04T11:55:16.070Z,9.48
2018-12-04T11:57:43.873Z,9.43
2018-12-04T12:00:19.999Z,9.43
2018-12-04T12:02:47.756Z,9.36
2018-12-04T12:05:15.643Z,9.53
2018-12-04T12:07:43.436Z,9.55
2018-12-04T12:10:11.201Z,9.53
2018-12-04T12:12:39.096Z,9.56
2018-12-04T12:15:07.006Z,9.50
2018-12-04T12:17:34.773Z,9.49
2018-12-04T12:20:03.167Z,9.51
2018-12-04T12:22:30.956Z,9.41
2018-12-04T12:25:04.348Z,9.53
2018-12-04T12:27:32.116Z,9.66
2018-12-04T12:30:00.064Z,9.54
2018-12-04T12:32:28.972Z,9.54
2018-12-04T12:34:56.699Z,9.42
2018-12-04T12:37:24.624Z,9.36
2018-12-04T12:39:52.398Z,9.35
2018-12-04T12:42:20.419Z,9.27
2018-12-04T12:44:48.262Z,9.24
2018-12-04T12:47:16.096Z,9.34
2018-12-04T12:49:43.861Z,9.32
2018-12-04T12:52:11.819Z,9.31
2018-12-04T12:54:41.609Z,9.22
2018-12-04T12:57:09.371Z,9.17
2018-12-04T12:59:37.165Z,9.08
2018-12-04T13:02:04.920Z,9.15
2018-12-04T13:04:34.055Z,9.01
2018-12-04T13:07:01.834Z,9.13
2018-12-04T13:09:30.181Z,9.09
2018-12-04T13:11:57.996Z,9.17
2018-12-04T13:14:25.752Z,9.02
2018-12-04T13:16:53.513Z,8.95
2018-12-04T13:19:21.411Z,8.96
2018-12-04T13:21:49.230Z,8.97
2018-12-04T13:24:16.977Z,9.07
2018-12-04T13:26:44.820Z,9.04
2018-12-04T13:29:12.606Z,9.02
2018-12-04T13:31:40.402Z,9.12
2018-12-04T13:34:08.151Z,9.08
2018-12-04T13:36:35.937Z,9.13
2018-12-04T13:39:06.896Z,9.08
2018-12-04T13:41:35.199Z,9.13
2018-12-04T13:44:03.078Z,9.14
2018-12-04T13:46:30.863Z,9.12
2018-12-04T13:48:58.611Z,8.97
2018-12-04T13:51:26.390Z,9.07
2018-12-04T13:53:54.168Z,9.26
2018-12-04T13:56:21.931Z,9.26
2018-12-04T13:58:49.698Z,9.18
2018-12-04T14:01:17.500Z,9.17
2018-12-04T14:03:45.205Z,9.26
2018-12-04T14:06:12.923Z,9.07
2018-12-04T14:08:41.411Z,9.19
2018-12-04T14:11:09.137Z,9.09
2018-12-04T14:13:37.048Z,9.10
2018-12-04T14:16:04.891Z,9.08
2018-12-04T14:18:32.651Z,9.10
2018-12-04T14:21:00.405Z,8.97
2018-12-04T14:23:28.278Z,9.05
2018-12-04T14:25:56.039Z,9.05
2018-12-04T14:28:23.853Z,9.12
2018-12-04T14:30:51.591Z,9.10
2018-12-04T14:33:19.441Z,9.12
2018-12-04T14:35:47.144Z,9.02
2018-12-04T14:38:14.898Z,9.07
2018-12-04T14:40:42.720Z,9.00
2018-12-04T14:43:10.579Z,8.95
2018-12-04T14:45:38.371Z,8.78
2018-12-04T14:48:06.140Z,8.87
2018-12-04T14:50:34.307Z,8.93
2018-12-04T14:53:02.068Z,8.81
2018-12-04T14:55:30.195Z,8.57
2018-12-04T14:57:57.979Z,8.61
2018-12-04T15:00:25.961Z,8.57
2018-12-04T15:02:53.739Z,8.57
2018-12-04T15:05:21.577Z,8.49
2018-12-04T15:07:49.416Z,8.38
2018-12-04T15:10:17.241Z,8.34
2018-12-04T15:12:45.087Z,8.40
2018-12-04T15:15:12.863Z,8.32
2018-12-04T15:17:40.632Z,8.37
2018-12-04T15:20:08.792Z,8.39
2018-12-04T15:22:36.694Z,8.33
2018-12-04T15:25:04.851Z,8.22
2018-12-04T15:27:32.733Z,8.30
2018-12-04T15:30:00.511Z,8.31
2018-12-04T15:32:28.359Z,8.29
2018-12-04T15:34:56.233Z,8.28
2018-12-04T15:37:24.182Z,8.27
2018-12-04T15:39:52.786Z,8.24
2018-12-04T15:42:20.758Z,8.16
2018-12-04T15:44:48.526Z,7.96
2018-12-04T15:47:16.297Z,8.02
2018-12-04T15:49:44.114Z,8.04
2018-12-04T15:52:11.883Z,8.02
2018-12-04T15:54:39.749Z,8.00
2018-12-04T15:57:07.587Z,7.90
2018-12-04T15:59:35.556Z,7.89
2018-12-04T16:02:03.456Z,7.83
2018-12-04T16:04:31.263Z,7.81
2018-12-04T16:06:59.029Z,7.76
2018-12-04T16:09:26.799Z,7.77
2018-12-04T16:11:54.530Z,7.76
2018-12-04T16:14:22.272Z,7.69
2018-12-04T16:16:50.031Z,7.71
2018-12-04T16:19:17.797Z,7.64
2018-12-04T16:21:45.524Z,7.58
2018-12-04T16:24:13.261Z,7.58
2018-12-04T16:26:41.911Z,7.54
2018-12-04T16:29:09.656Z,7.59
2018-12-04T16:31:37.416Z,7.56
2018-12-04T16:34:05.251Z,7.55
2018-12-04T16:36:32.977Z,7.57
2018-12-04T16:39:00.716Z,7.58
2018-12-04T16:41:28.463Z,7.57
2018-12-04T16:43:56.216Z,7.55
2018-12-04T16:46:23.977Z,7.53
2018-12-04T16:48:51.744Z,7.50
2018-12-04T16:51:19.515Z,7.45
2018-12-04T16:53:47.278Z,7.42
2018-12-04T16:56:15.018Z,7.37
2018-12-04T16:58:42.942Z,7.33
2018-12-04T17:01:10.765Z,7.29
2018-12-04T17:03:38.757Z,7.26
2018-12-04T17:06:06.546Z,7.25
2018-12-04T17:08:34.336Z,7.19
2018-12-04T17:11:02.068Z,7.05
2018-12-04T17:13:29.800Z,7.07
2018-12-04T17:15:57.838Z,7.13
2018-12-04T17:18:25.580Z,7.13
2018-12-04T17:20:53.341Z,7.13
2018-12-04T17:23:21.104Z,7.03
2018-12-04T17:25:48.940Z,7.00
2018-12-04T17:28:16.746Z,7.03
2018-12-04T17:30:44.500Z,6.88
2018-12-04T17:33:12.240Z,6.91
2018-12-04T17:35:40.064Z,6.85
2018-12-04T17:38:07.854Z,6.80
2018-12-04T17:40:35.624Z,6.78
2018-12-04T17:43:03.429Z,6.64
2018-12-04T17:45:31.159Z,6.49
2018-12-04T17:47:58.951Z,6.56
2018-12-04T17:50:26.751Z,6.62
2018-12-04T17:52:54.575Z,6.70
2018-12-04T17:55:22.480Z,6.70
2018-12-04T17:57:50.217Z,6.66
2018-12-04T18:00:18.150Z,6.55
2018-12-04T18:02:45.909Z,6.64
2018-12-04T18:05:13.669Z,6.69
2018-12-04T18:07:41.454Z,6.65
2018-12-04T18:10:09.259Z,6.55
2018-12-04T18:12:37.034Z,6.61
2018-12-04T18:15:05.945Z,6.61
2018-12-04T18:17:33.667Z,6.62
2018-12-04T18:20:01.461Z,6.59
2018-12-04T18:22:29.248Z,6.57
2018-12-04T18:24:57.014Z,6.56
2018-12-04T18:27:24.820Z,6.55
2018-12-04T18:29:52.571Z,6.53
2018-12-04T18:32:20.342Z,6.49
2018-12-04T18:34:48.133Z,6.48
2018-12-04T18:37:16.030Z,6.40
2018-12-04T18:39:44.021Z,6.43
2018-12-04T18:42:11.763Z,6.43
2018-12-04T18:44:39.518Z,6.42
2018-12-04T18:47:07.262Z,6.41
2018-12-04T18:49:35.240Z,6.32
2018-12-04T18:52:03.007Z,6.32
2018-12-04T18:54:30.792Z,6.31
2018-12-04T18:56:58.655Z,6.29
2018-12-04T18:59:26.385Z,6.18
2018-12-04T19:01:54.151Z,6.16
2018-12-04T19:04:21.926Z,5.91
2018-12-04T19:06:49.697Z,6.10
2018-12-04T19:09:17.412Z,6.11
2018-12-04T19:11:45.197Z,6.13
2018-12-04T19:14:13.088Z,6.04
2018-12-04T19:16:40.865Z,6.04
2018-12-04T19:19:08.760Z,6.05
2018-12-04T19:21:36.498Z,5.99
2018-12-04T19:24:04.281Z,5.93
2018-12-04T19:26:32.212Z,5.85
2018-12-04T19:29:00.033Z,5.70
2018-12-04T19:31:27.798Z,5.81
2018-12-04T19:33:55.649Z,5.76
2018-12-04T19:36:23.455Z,5.61
2018-12-04T19:38:51.226Z,5.66
2018-12-04T19:41:19.053Z,5.67
2018-12-04T19:43:46.785Z,5.70
2018-12-04T19:46:14.534Z,5.70
2018-12-04T19:48:42.317Z,5.69
2018-12-04T19:51:10.081Z,5.66
2018-12-04T19:53:37.862Z,5.61
2018-12-04T19:56:05.825Z,5.62
2018-12-04T19:58:33.782Z,5.53
2018-12-04T20:01:01.514Z,5.35
2018-12-04T20:03:29.258Z,5.46
2018-12-04T20:05:57.229Z,5.33
2018-12-04T20:08:29.661Z,5.24
2018-12-04T20:10:57.404Z,5.48
2018-12-04T20:13:25.290Z,5.51
2018-12-04T20:15:53.951Z,5.51
2018-12-04T20:18:21.992Z,5.45
2018-12-04T20:20:49.738Z,5.47
2018-12-04T20:23:17.460Z,5.53
2018-12-04T20:25:45.325Z,5.42
2018-12-04T20:28:13.032Z,5.51
2018-12-04T20:30:40.856Z,5.54
2018-12-04T20:33:08.639Z,5.56
2018-12-04T20:35:36.447Z,5.54
2018-12-04T20:38:04.232Z,5.49
2018-12-04T20:40:32.058Z,5.52
2018-12-04T20:42:59.871Z,5.56
2018-12-04T20:45:27.556Z,5.58
2018-12-04T20:47:55.426Z,5.60
2018-12-04T20:50:23.314Z,5.58
2018-12-04T20:52:51.082Z,5.59
2018-12-04T20:55:19.158Z,5.60
2018-12-04T20:57:46.962Z,5.61
2018-12-04T21:00:14.799Z,5.62
2018-12-04T21:02:42.542Z,5.50
2018-12-04T21:05:10.344Z,5.55
2018-12-04T21:07:38.090Z,5.53
2018-12-04T21:10:06.591Z,5.53
2018-12-04T21:12:34.404Z,5.49
2018-12-04T21:15:02.167Z,5.50
2018-12-04T21:17:29.936Z,5.48
2018-12-04T21:19:57.787Z,5.41
2018-12-04T21:22:25.477Z,5.37
2018-12-04T21:24:53.233Z,5.31
2018-12-04T21:27:26.728Z,5.31
2018-12-04T21:29:59.951Z,5.36
2018-12-04T21:32:33.157Z,5.28
2018-12-04T21:36:04.938Z,5.36
2018-12-04T21:38:38.289Z,5.33
2018-12-04T21:41:13.597Z,5.36
2018-12-04T21:43:47.044Z,5.39
2018-12-04T21:46:20.425Z,5.41
2018-12-04T21:48:48.309Z,5.43
2018-12-04T21:51:16.039Z,5.48
2018-12-04T21:53:43.809Z,5.49
2018-12-04T21:56:11.549Z,5.49
2018-12-04T21:58:39.348Z,5.51
2018-12-04T22:01:07.050Z,5.50
2018-12-04T22:03:34.879Z,5.48
2018-12-04T22:06:02.612Z,5.48
2018-12-04T22:08:30.344Z,5.49
2018-12-04T22:10:58.105Z,5.50
2018-12-04T22:13:25.895Z,5.51
2018-12-04T22:15:53.684Z,5.51
2018-12-04T22:18:21.454Z,5.51
2018-12-04T22:20:49.190Z,5.49
2018-12-04T22:23:16.947Z,5.45
2018-12-04T22:25:44.694Z,5.43
2018-12-04T22:28:12.428Z,5.40
2018-12-04T22:30:40.134Z,5.39
2018-12-04T22:33:07.949Z,5.37
2018-12-04T22:35:35.718Z,5.32
2018-12-04T22:38:03.493Z,5.31
2018-12-04T22:40:31.389Z,5.30
2018-12-04T22:42:59.148Z,5.25
2018-12-04T22:45:27.040Z,5.24
2018-12-04T22:47:55.260Z,5.23
2018-12-04T22:50:23.013Z,5.20
2018-12-04T22:52:50.823Z,5.16
2018-12-04T22:55:18.612Z,5.13
2018-12-04T22:57:46.402Z,5.12
2018-12-04T23:00:35.505Z,5.09
2018-12-04T23:03:03.377Z,5.05
2018-12-04T23:05:31.171Z,5.01
2018-12-04T23:07:58.901Z,4.98
2018-12-04T23:10:26.665Z,4.96
2018-12-04T23:12:54.421Z,4.93
2018-12-04T23:15:22.152Z,4.90
2018-12-04T23:17:50.140Z,4.87
2018-12-04T23:20:17.873Z,4.84
2018-12-04T23:22:45.621Z,4.81
2018-12-04T23:25:13.402Z,4.80
2018-12-04T23:27:41.144Z,4.77
2018-12-04T23:30:09.029Z,4.72
2018-12-04T23:32:36.749Z,4.71
2018-12-04T23:35:05.049Z,4.66
2018-12-04T23:37:32.789Z,4.62
2018-12-04T23:40:00.545Z,4.62
2018-12-04T23:42:28.267Z,4.57
2018-12-04T23:44:56.033Z,4.53
2018-12-04T23:47:23.808Z,4.47
2018-12-04T23:49:51.560Z,4.44
2018-12-04T23:52:19.388Z,4.42
2018-12-04T23:54:47.130Z,4.42
2018-12-04T23:57:14.914Z,4.39
2018-12-04T23:59:42.730Z,4.34
